Terminal Aerodrome Forecast
Issued by NWS

Home | Current Version | Previous Version | Text Only | Print | Product List | Glossary On
Versions: 1 2 3 4 5 6 7 8 9 10 11 12 13 14 15 16 17 18
000
FTUS45 KREV 302320
TAFTRK
TAF
KTRK 302320Z 0100/0124 04012G17KT P6SM BKN040
     FM010200 VRB03KT P6SM FEW040
     FM011100 00000KT 1/2SM FZFG VV001
     FM011500 07006KT P6SM SCT001 SCT040
     FM012100 06008KT P6SM VCSH SCT030=

USA.gov is the U.S. government's official web portal to all federal, state and local government web resources and services.